Pagrindinis puslapis
METAR-TAF:

METAR-TAF

Oro uostai :

Mendosa, Argentina

platuma: 32-50S, ilguma: 068-47W, Aukštis: 705 m

Dabartinis oras

Ataskaita buvo paskelbta 51 minutes, ne 09:00 UTC
Vėjas 4 kt iš Šiaurės Vakarų
Temperatūra 1°C
Drėgmė 93%
Slėgis 1023 hPa
Matomumas 10 km arba daugiau
nėra debesų žemiau 1500 m ir nėra kamuolinių lietaus debesų

METAR: SAME 310900Z 32004KT CAVOK 01/M00 Q1023

Laikas: 06:51 (09:51 UTC)

Prognozė

Ataskaita buvo paskelbta 4 valandos ir 51 minutes, ne 05:00 UTC
Prognozė galioja nuo 31 metu 06 UTC su 01 metu 06 UTC
Vėjas 3 kt nuo kintamojo kryptimis
Matomumas 10 km arba daugiau
nėra debesų žemiau 1500 m ir nėra kamuolinių lietaus debesų
Tapsmas
nuo 31 metu 15 UTC su 31 metu 17 UTC
Vėjas 8 kt iš Šiaurės/Šiaurės Rytų
Tapsmas
nuo 31 metu 21 UTC su 31 metu 23 UTC
Vėjas 3 kt nuo kintamojo kryptimis

TAF: SAME 310500Z 3106/0106 VRB03KT CAVOK TX15/3119Z TN00/3111Z BECMG 3115/3117 02008KT BECMG 3121/3123 VRB03KT

Orai ataskaitas ir orų prognozės (METAR, TAF).

turimą stotys yra geltonos ir raudonos taškus žemėlapyje.

Perkelti pele per norėdami pamatyti stoties vardą.

Tada spustelėkite, norėdami matyti oro stebėjimo ir prognozės.

Norėdami pakeisti žemėlapį: spustelėkite ant žalios mygtukų su juodo kryžiaus žemyn,; žalią mygtuką su brūkšneliu, jei norite nutolinti; arba žalių rodyklių gretimoms žemėlapius.


METAR-TAF: